Time;durP1;ratioP1;P1;durP2;ratioP2;P2;SDS_P1;SDS_P2;PMS_P1;PMS_P2;Temp;Humidity;BMP_temperature;BMP_pressure;BME280_temperature;BME280_humidity;BME280_pressure;Samples;Min_cycle;Max_cycle;Signal;HPM_P1;HPM_P2
2021/10/26 00:03:06;;;;;;;49.57;24.43;;;;;;;5.64;80.38;101098.91;5236556;56;1139034;-76
2021/10/26 00:08:12;;;;;;;48.20;21.77;;;;;;;5.59;80.67;101110.08;5236200;56;1138931;-76
2021/10/26 00:13:18;;;;;;;38.98;17.37;;;;;;;5.54;80.82;101098.48;5237677;56;1139060;-76
2021/10/26 00:18:24;;;;;;;43.80;18.43;;;;;;;5.58;80.96;101103.12;5240844;56;1139243;-77
2021/10/26 00:23:30;;;;;;;40.57;17.87;;;;;;;5.65;80.98;101100.61;5240888;56;1141197;-75
2021/10/26 00:28:36;;;;;;;30.93;15.53;;;;;;;5.66;80.85;101099.20;5240932;56;1141260;-76
2021/10/26 00:33:42;;;;;;;35.90;17.13;;;;;;;5.62;81.05;101098.98;5240964;56;1141037;-77
2021/10/26 00:38:48;;;;;;;35.53;16.50;;;;;;;5.56;81.34;101086.14;5241043;56;1139284;-75
2021/10/26 00:43:54;;;;;;;47.37;21.60;;;;;;;5.52;81.43;101090.28;5240959;56;1139024;-77
2021/10/26 00:49:01;;;;;;;38.07;19.00;;;;;;;5.49;81.69;101090.00;5240964;56;1136819;-77
2021/10/26 00:54:09;;;;;;;41.70;19.30;;;;;;;5.52;81.86;101096.84;5240919;56;1137043;-77
2021/10/26 00:59:16;;;;;;;45.73;18.87;;;;;;;5.49;81.66;101094.39;5240814;56;1137298;-76
2021/10/26 01:04:24;;;;;;;39.57;17.43;;;;;;;5.52;81.74;101097.70;5240535;56;1138843;-76
2021/10/26 01:09:30;;;;;;;44.70;18.07;;;;;;;5.54;82.02;101079.27;5240925;56;1139113;-77
2021/10/26 01:14:38;;;;;;;41.20;18.53;;;;;;;5.54;82.10;101073.55;5171003;56;1136809;-77
2021/10/26 01:19:48;;;;;;;40.00;20.03;;;;;;;5.50;82.29;101069.37;5151105;56;1137516;-76
2021/10/26 01:24:55;;;;;;;43.53;18.10;;;;;;;5.52;82.48;101079.79;5152744;57;1136989;-77
2021/10/26 01:30:02;;;;;;;36.00;17.43;;;;;;;5.54;82.37;101083.20;5146419;57;1139372;-77
2021/10/26 01:35:10;;;;;;;44.70;19.67;;;;;;;5.60;82.40;101086.85;5146288;57;1139508;-76
2021/10/26 01:40:16;;;;;;;51.77;21.27;;;;;;;5.63;82.49;101088.02;5149562;57;1139241;-77
2021/10/26 01:45:23;;;;;;;39.05;18.75;;;;;;;5.64;82.65;101077.45;5149516;57;1136948;-76
2021/10/26 01:50:30;;;;;;;46.97;18.57;;;;;;;5.64;82.66;101086.64;5118679;57;1137595;-77
2021/10/26 01:55:37;;;;;;;38.17;15.50;;;;;;;5.58;82.66;101066.39;5149573;57;1136889;-76
2021/10/26 02:00:44;;;;;;;34.97;16.63;;;;;;;5.57;82.82;101068.16;5118953;57;1136928;-76
2021/10/26 02:05:50;;;;;;;37.42;19.02;;;;;;;5.54;83.07;101070.08;5119145;57;1134834;-76
2021/10/26 02:10:56;;;;;;;41.53;18.80;;;;;;;5.52;83.27;101068.84;5150295;57;1138989;-76
2021/10/26 02:16:02;;;;;;;30.52;15.23;;;;;;;5.54;83.29;101072.70;5226518;56;1138965;-77
2021/10/26 02:21:08;;;;;;;37.70;16.50;;;;;;;5.55;83.21;101070.01;5236658;56;1141026;-76
2021/10/26 02:26:14;;;;;;;38.10;18.23;;;;;;;5.62;83.27;101063.55;5236622;56;1141281;-77
2021/10/26 02:31:21;;;;;;;42.00;19.70;;;;;;;5.68;83.28;101059.77;5236227;56;1141140;-78
2021/10/26 02:36:28;;;;;;;39.63;17.23;;;;;;;5.68;83.18;101050.58;5236401;56;1139207;-78
2021/10/26 02:41:35;;;;;;;42.87;18.97;;;;;;;5.69;83.09;101053.59;5236546;56;1139324;-77
2021/10/26 02:46:40;;;;;;;40.60;17.37;;;;;;;5.68;83.04;101041.86;5236433;56;1138851;-77
2021/10/26 02:51:47;;;;;;;34.90;16.53;;;;;;;5.70;82.90;101052.67;5236521;56;1141106;-78
2021/10/26 02:56:53;;;;;;;40.07;17.13;;;;;;;5.71;82.83;101054.84;5236318;56;1140997;-77
2021/10/26 03:01:59;;;;;;;32.97;16.40;;;;;;;5.69;82.90;101049.66;5211747;56;1139587;-76
2021/10/26 03:07:05;;;;;;;38.80;17.37;;;;;;;5.65;82.93;101052.88;5174387;56;1139153;-77
2021/10/26 03:12:11;;;;;;;30.60;14.13;;;;;;;5.64;82.85;101047.28;5195056;56;1139136;-78
2021/10/26 03:17:17;;;;;;;33.50;16.63;;;;;;;5.66;82.89;101044.55;5234821;56;1141122;-77
2021/10/26 03:22:24;;;;;;;32.80;17.30;;;;;;;5.69;82.92;101047.03;5233614;56;1141215;-78
2021/10/26 03:27:30;;;;;;;36.60;17.63;;;;;;;5.67;82.83;101055.44;5221960;56;1139155;-77
2021/10/26 03:32:37;;;;;;;41.07;16.40;;;;;;;5.63;82.85;101049.98;5235089;56;1138971;-76
2021/10/26 03:37:45;;;;;;;24.60;12.93;;;;;;;5.61;82.73;101057.06;5216141;56;1141029;-77
2021/10/26 03:42:51;;;;;;;42.93;17.87;;;;;;;5.60;82.93;101047.49;5236700;56;1141085;-76
2021/10/26 03:47:56;;;;;;;37.30;17.27;;;;;;;5.58;82.92;101049.34;5230410;56;1138908;-78
2021/10/26 03:53:03;;;;;;;34.13;16.93;;;;;;;5.55;82.87;101045.55;5200776;56;1139014;-77
2021/10/26 03:58:10;;;;;;;37.67;15.90;;;;;;;5.55;82.78;101042.92;5235889;56;1138984;-77
2021/10/26 04:03:16;;;;;;;35.13;16.77;;;;;;;5.61;82.90;101038.23;5237281;56;1141061;-77
2021/10/26 04:08:31;;;;;;;45.73;18.53;;;;;;;5.66;82.89;101038.84;5229236;56;1139283;-76
2021/10/26 04:13:34;;;;;;;39.90;18.53;;;;;;;5.69;82.81;101046.18;5202477;56;1138950;-76
2021/10/26 04:18:41;;;;;;;39.13;16.67;;;;;;;5.62;82.47;101049.12;5214726;56;1139469;-76
2021/10/26 04:23:50;;;;;;;33.00;15.50;;;;;;;5.60;82.62;101040.47;5216030;56;1138405;-74
2021/10/26 04:28:56;;;;;;;33.37;15.93;;;;;;;5.57;82.54;101045.86;5209429;56;1139083;-75
2021/10/26 04:34:02;;;;;;;111.37;57.03;;;;;;;5.54;82.33;101040.76;5204586;56;1138504;-76
2021/10/26 04:39:09;;;;;;;115.50;52.40;;;;;;;5.60;82.38;101042.24;5205074;56;1143401;-76
2021/10/26 04:44:15;;;;;;;45.60;21.10;;;;;;;5.63;82.41;101041.64;5129176;57;1143189;-75
2021/10/26 04:49:22;;;;;;;28.93;12.77;;;;;;;5.66;82.44;101037.53;5046451;58;1138469;-77
2021/10/26 04:54:28;;;;;;;32.17;15.77;;;;;;;5.62;82.21;101039.94;5056253;58;1139006;-75
2021/10/26 04:59:42;;;;;;;31.20;15.20;;;;;;;5.54;82.06;101038.59;5145858;57;1141196;-75
2021/10/26 05:04:48;;;;;;;36.73;15.97;;;;;;;5.57;82.17;101041.92;5021357;58;1141181;-76
2021/10/26 05:09:54;;;;;;;35.13;13.80;;;;;;;5.56;82.20;101042.00;5018140;58;1139217;-77
2021/10/26 05:15:01;;;;;;;28.77;13.50;;;;;;;5.51;82.32;101039.59;5041561;58;1137153;-77
2021/10/26 05:20:25;;;;;;;26.70;12.57;;;;;;;5.42;82.43;101033.48;5062672;58;1137337;-76
2021/10/26 05:25:39;;;;;;;32.20;13.53;;;;;;;5.40;82.51;101038.41;4979103;58;1138956;-77
2021/10/26 05:30:47;;;;;;;33.00;12.87;;;;;;;5.38;82.71;101038.48;4981414;58;1137007;-76
2021/10/26 05:35:53;;;;;;;27.57;13.30;;;;;;;5.36;82.95;101032.91;4982148;59;1136903;-76
2021/10/26 05:41:00;;;;;;;36.37;14.20;;;;;;;5.30;82.97;101021.81;4981660;59;1137004;-76
2021/10/26 05:46:05;;;;;;;29.40;13.62;;;;;;;5.35;82.90;101037.31;4982108;59;1139130;-75
2021/10/26 05:51:11;;;;;;;41.30;15.40;;;;;;;5.37;83.07;101050.36;4981927;59;1136935;-76
2021/10/26 05:56:19;;;;;;;38.43;13.87;;;;;;;5.37;83.13;101033.30;4982068;59;1136986;-75
2021/10/26 06:01:25;;;;;;;38.80;13.57;;;;;;;5.35;83.12;101033.37;4981960;59;1136328;-76
2021/10/26 06:06:32;;;;;;;28.70;11.20;;;;;;;5.39;83.09;101032.77;4982335;58;1139032;-76
2021/10/26 06:11:38;;;;;;;19.50;10.17;;;;;;;5.43;83.11;101045.68;4981968;58;1137025;-77
2021/10/26 06:16:45;;;;;;;27.30;10.80;;;;;;;5.44;83.29;101051.31;5166241;57;21167;-76
2021/10/26 06:21:50;;;;;;;23.87;12.07;;;;;;;5.41;83.17;101048.83;5112340;57;1134787;-75
2021/10/26 06:26:58;;;;;;;24.80;11.48;;;;;;;5.44;83.04;101045.22;5062959;58;1140477;-75
2021/10/26 06:32:04;;;;;;;24.57;11.55;;;;;;;5.48;82.97;101058.13;5063074;58;1141253;-77
2021/10/26 06:37:10;;;;;;;17.17;8.87;;;;;;;5.52;83.05;101070.61;5063030;58;1139493;-75
2021/10/26 06:42:16;;;;;;;34.83;12.63;;;;;;;5.50;83.10;101075.92;5061947;58;1136964;-77
2021/10/26 06:47:40;;;;;;;22.30;11.75;;;;;;;5.45;83.15;101076.63;5063021;58;1139062;-77
2021/10/26 06:52:57;;;;;;;30.90;13.78;;;;;;;5.47;83.17;101076.55;5022292;58;1138386;-76
2021/10/26 06:58:20;;;;;;;37.35;16.82;;;;;;;5.55;83.32;101083.12;5062968;58;1141108;-76
2021/10/26 07:03:28;;;;;;;38.77;18.47;;;;;;;5.66;83.40;101086.54;5057852;58;1141200;-77
2021/10/26 07:08:49;;;;;;;36.27;14.93;;;;;;;5.71;83.40;101064.87;5056733;58;1139093;-75
2021/10/26 07:14:12;;;;;;;40.90;16.63;;;;;;;5.70;83.09;101087.25;5041028;58;1138982;-76
2021/10/26 07:19:19;;;;;;;41.23;15.30;;;;;;;5.74;83.64;101080.47;5114629;57;1139196;-77
2021/10/26 07:24:43;;;;;;;30.17;11.70;;;;;;;5.88;83.54;101085.05;5074506;58;1139348;-76
2021/10/26 07:29:50;;;;;;;25.47;11.37;;;;;;;6.05;83.96;101076.38;5071318;57;1141114;-76
2021/10/26 07:34:56;;;;;;;20.17;9.07;;;;;;;6.27;83.72;101082.22;5080261;56;1141150;-76
2021/10/26 07:40:04;;;;;;;32.70;13.23;;;;;;;6.46;83.33;101082.99;5004398;58;1136985;-77
2021/10/26 07:45:12;;;;;;;27.27;12.10;;;;;;;6.67;83.48;101086.30;5071972;57;1141357;-76
2021/10/26 07:50:18;;;;;;;20.37;10.30;;;;;;;6.90;83.12;101083.75;5158715;57;1140479;-78
2021/10/26 07:55:24;;;;;;;21.00;8.80;;;;;;;7.14;83.00;101081.14;5118752;57;1139072;-76
2021/10/26 08:00:32;;;;;;;14.87;7.77;;;;;;;7.36;82.20;101075.53;5147220;57;1136438;-76
2021/10/26 08:05:55;;;;;;;14.53;8.58;;;;;;;7.56;81.17;101075.27;5137663;57;1136827;-77
2021/10/26 08:11:02;;;;;;;20.80;7.57;;;;;;;7.72;80.84;101065.58;5064354;58;1134879;-76
2021/10/26 08:16:10;;;;;;;20.50;8.20;;;;;;;7.87;79.58;101063.00;5140263;57;1136972;-77
2021/10/26 08:21:16;;;;;;;24.03;11.27;;;;;;;8.04;80.22;101061.09;5136293;57;1136955;-74
2021/10/26 08:26:29;;;;;;;15.37;7.00;;;;;;;8.22;79.76;101055.22;5135473;57;1139052;-75
2021/10/26 08:31:48;;;;;;;23.00;9.60;;;;;;;8.38;77.71;101052.55;5087599;57;1137168;-75
2021/10/26 08:36:50;;;;;;;16.52;7.55;;;;;;;8.52;78.87;101071.48;5051964;58;1136959;-76
2021/10/26 08:41:59;;;;;;;17.43;8.37;;;;;;;8.74;79.07;101072.70;5029507;58;1136969;-76
2021/10/26 08:47:06;;;;;;;16.13;8.20;;;;;;;8.90;78.51;101077.89;4972724;59;1134921;-76
2021/10/26 08:52:15;;;;;;;19.25;9.28;;;;;;;8.98;78.08;101075.64;5029091;58;1134792;-75
2021/10/26 08:57:23;;;;;;;20.53;8.70;;;;;;;9.06;78.09;101069.88;4971950;59;1139066;-76
2021/10/26 09:02:42;;;;;;;21.00;10.10;;;;;;;9.05;77.72;101075.62;5028413;58;1139195;-75
2021/10/26 09:08:08;;;;;;;19.57;10.13;;;;;;;9.09;78.84;101076.28;4972922;59;1141345;-76
2021/10/26 09:19:15;;;;;;;21.27;10.33;;;;;;;9.23;79.04;101073.63;5127012;57;1140511;-76
2021/10/26 09:24:23;;;;;;;21.27;10.37;;;;;;;9.36;79.32;101074.53;5145177;57;1141156;-75
2021/10/26 09:29:38;;;;;;;30.60;11.63;;;;;;;9.51;79.31;101070.07;5138259;57;1141113;-75
2021/10/26 09:34:57;;;;;;;27.97;11.33;;;;;;;9.51;79.31;101070.07;5067715;58;1141153;-76
2021/10/26 09:40:05;;;;;;;23.83;9.77;;;;;;;9.62;79.28;101078.17;4986252;59;1141094;-76
2021/10/26 09:45:26;;;;;;;38.87;13.57;;;;;;;9.72;78.95;101087.66;4982184;58;1138434;-76
2021/10/26 09:50:37;;;;;;;44.08;20.00;;;;;;;9.82;79.38;101087.42;5108622;57;1141352;-76
2021/10/26 09:55:50;;;;;;;41.10;13.53;;;;;;;9.95;78.98;101090.09;5099477;56;1140812;-75
2021/10/26 10:01:09;;;;;;;34.23;10.97;;;;;;;10.05;79.18;101082.80;5151238;57;1139050;-75
2021/10/26 10:06:14;;;;;;;24.73;11.40;;;;;;;10.17;79.40;101071.41;5151254;57;1141172;-76
2021/10/26 10:11:21;;;;;;;189.87;52.58;;;;;;;10.23;79.12;101071.00;5150743;57;1141033;-77
2021/10/26 10:16:27;;;;;;;21.87;7.37;;;;;;;10.29;79.22;101063.63;5090700;57;1143287;-77
2021/10/26 10:21:34;;;;;;;19.27;8.23;;;;;;;10.43;79.41;101063.53;5006141;58;1138399;-76
2021/10/26 10:26:40;;;;;;;11.97;6.47;;;;;;;10.58;78.99;101059.83;4998488;57;1139236;-76
2021/10/26 10:31:50;;;;;;;20.60;9.80;;;;;;;10.59;78.66;101053.59;5019588;58;1139333;-76
2021/10/26 10:37:00;;;;;;;18.63;7.67;;;;;;;10.58;78.17;101051.89;5110351;58;1139073;-76
2021/10/26 10:42:24;;;;;;;92.70;26.77;;;;;;;10.57;78.47;101053.70;5047491;58;1138602;-76
2021/10/26 10:47:43;;;;;;;41.10;13.93;;;;;;;10.59;78.72;101043.02;5047522;58;1138522;-76
2021/10/26 10:53:14;;;;;;;21.55;9.18;;;;;;;10.65;78.57;101039.95;5047591;58;1143325;-76
2021/10/26 10:58:40;;;;;;;40.73;16.47;;;;;;;10.68;78.25;101032.28;5048008;58;1141132;-75
2021/10/26 11:03:47;;;;;;;13.67;7.27;;;;;;;10.69;78.62;101032.18;5083321;57;1143144;-75
2021/10/26 11:08:53;;;;;;;17.50;9.80;;;;;;;10.69;78.25;101025.57;5102069;57;1140416;-75
2021/10/26 11:14:20;;;;;;;15.03;7.67;;;;;;;10.67;78.88;101034.56;5088052;57;1141360;-75
2021/10/26 11:19:46;;;;;;;38.83;15.60;;;;;;;10.63;78.64;101025.14;5112524;57;1141343;-75
2021/10/26 11:25:24;;;;;;;15.00;8.10;;;;;;;10.62;79.31;101028.26;5149789;57;1142886;-76
2021/10/26 11:30:35;;;;;;;18.87;10.00;;;;;;;10.62;79.45;101034.88;5140322;56;1141048;-75
2021/10/26 11:35:56;;;;;;;39.20;14.73;;;;;;;10.55;79.51;101045.02;5111816;57;1143443;-76
2021/10/26 11:41:11;;;;;;;22.00;9.03;;;;;;;10.44;79.64;101038.78;5099795;56;1143247;-76
2021/10/26 11:46:29;;;;;;;32.13;14.17;;;;;;;10.37;79.88;101038.38;5116396;56;1139030;-77
2021/10/26 11:51:43;;;;;;;19.03;9.03;;;;;;;10.28;80.20;101035.02;5118787;57;1141187;-75
2021/10/26 11:56:56;;;;;;;32.23;13.63;;;;;;;10.28;80.50;101040.78;5150125;57;1139087;-75
2021/10/26 12:02:16;;;;;;;20.50;10.33;;;;;;;10.31;80.58;101050.67;5150618;57;1141098;-75
2021/10/26 12:07:26;;;;;;;22.33;10.17;;;;;;;10.28;80.72;101048.70;5075610;58;1141157;-76
2021/10/26 12:12:35;;;;;;;44.10;14.20;;;;;;;10.25;80.84;101057.69;5035989;58;1141082;-76
2021/10/26 12:17:43;;;;;;;44.43;17.27;;;;;;;10.25;81.02;101048.44;5106569;56;1141079;-77
2021/10/26 12:22:59;;;;;;;33.13;14.60;;;;;;;10.27;81.40;101053.63;5115473;57;1139231;-77
2021/10/26 12:28:10;;;;;;;17.60;7.97;;;;;;;10.33;81.26;101052.75;5113959;57;1143107;-76
2021/10/26 12:33:25;;;;;;;102.53;33.48;;;;;;;10.34;81.31;101047.83;5149699;56;1141077;-75
2021/10/26 12:38:41;;;;;;;151.00;49.30;;;;;;;10.32;81.43;101036.51;5093232;57;1145271;-76
2021/10/26 12:44:04;;;;;;;45.70;17.43;;;;;;;10.35;81.44;101054.81;5080050;57;1145271;-75
2021/10/26 12:49:15;;;;;;;41.07;14.57;;;;;;;10.38;81.81;101061.22;5156636;57;1143364;-75
2021/10/26 12:54:22;;;;;;;50.70;16.53;;;;;;;10.39;82.03;101056.27;5154884;57;1143245;-75
2021/10/26 12:59:29;;;;;;;27.90;12.30;;;;;;;10.46;82.12;101058.03;5155061;57;1143253;-76
2021/10/26 13:04:41;;;;;;;27.87;12.60;;;;;;;10.48;82.34;101060.95;5155200;57;1143441;-75
2021/10/26 13:09:55;;;;;;;28.10;11.17;;;;;;;10.56;82.33;101060.41;5154303;57;1143194;-76
2021/10/26 13:15:17;;;;;;;24.77;11.50;;;;;;;10.62;82.53;101059.16;5103130;57;1143233;-77
2021/10/26 13:20:43;;;;;;;21.57;9.73;;;;;;;10.65;82.70;101053.18;5106567;57;1143123;-76
2021/10/26 13:25:54;;;;;;;17.63;8.43;;;;;;;10.66;83.26;101058.84;5094660;57;1141112;-74
2021/10/26 13:31:04;;;;;;;18.13;10.30;;;;;;;10.61;84.36;101059.63;5085050;57;1141112;-76
2021/10/26 13:36:15;;;;;;;19.73;9.78;;;;;;;10.58;84.28;101061.16;5149431;57;1143428;-75
2021/10/26 13:41:21;;;;;;;28.23;13.37;;;;;;;10.55;85.14;101054.75;5120676;57;1141126;-74
2021/10/26 13:46:26;;;;;;;61.83;25.60;;;;;;;10.52;84.88;101055.83;5142223;57;1143255;-75
2021/10/26 13:51:32;;;;;;;25.97;14.10;;;;;;;10.55;85.12;101061.36;5117450;57;1143129;-77
2021/10/26 13:56:38;;;;;;;26.70;10.50;;;;;;;10.56;85.41;101059.09;5102799;56;1141323;-75
2021/10/26 14:01:45;;;;;;;24.93;11.10;;;;;;;10.57;86.05;101060.31;5109670;57;1141052;-74
2021/10/26 14:06:51;;;;;;;24.20;11.27;;;;;;;10.62;86.29;101060.47;5132500;57;1141206;-75
2021/10/26 14:11:56;;;;;;;23.40;12.73;;;;;;;10.62;87.02;101065.29;5146424;57;1141114;-77
2021/10/26 14:17:02;;;;;;;45.50;18.53;;;;;;;10.65;86.52;101065.09;4982779;59;1141397;-74
2021/10/26 14:22:08;;;;;;;39.03;15.67;;;;;;;10.68;86.84;101072.81;5063953;57;1141112;-74
2021/10/26 14:27:14;;;;;;;30.63;13.63;;;;;;;10.69;87.14;101081.13;5132416;57;1141479;-74
2021/10/26 14:32:21;;;;;;;37.40;15.57;;;;;;;10.70;87.66;101089.88;5125686;57;1141264;-75
2021/10/26 14:38:15;;;;;;;26.30;13.47;;;;;;;10.65;87.99;101081.43;5016892;58;1141277;-74
2021/10/26 14:42:59;;;;;;;25.67;14.53;;;;;;;10.70;88.00;101087.23;5110532;57;1141159;-76
2021/10/26 14:58:36;;;;;;;32.17;15.10;;;;;;;10.71;88.78;101096.86;5137756;57;1143241;-74
2021/10/26 15:03:42;;;;;;;65.78;37.15;;;;;;;10.73;89.50;101104.22;5138099;57;1143228;-75
2021/10/26 15:08:57;;;;;;;163.50;82.13;;;;;;;10.74;89.18;101101.47;5132513;57;1143047;-73
2021/10/26 15:14:00;;;;;;;69.97;37.67;;;;;;;10.75;90.25;101087.30;5122877;56;1145346;-76
2021/10/26 15:19:06;;;;;;;39.83;23.00;;;;;;;10.76;89.50;101088.98;5150288;57;1143149;-77
2021/10/26 15:24:46;;;;;;;43.17;23.90;;;;;;;10.78;90.08;101091.06;4991829;59;1143399;-75
2021/10/26 15:34:42;;;;;;;25.88;12.10;;;;;;;10.74;89.98;101100.63;5150520;57;1143222;-73
2021/10/26 15:39:50;;;;;;;30.33;14.93;;;;;;;10.72;91.09;101106.02;5030372;58;1143175;-75
2021/10/26 15:44:55;;;;;;;28.20;18.03;;;;;;;10.71;90.52;101115.37;5058613;58;1143030;-76
2021/10/26 15:50:08;;;;;;;36.25;17.60;;;;;;;10.69;91.20;101135.83;5052064;58;1143184;-76
2021/10/26 15:55:13;;;;;;;29.47;16.67;;;;;;;10.68;91.41;101140.75;5057772;58;1143204;-77
2021/10/26 16:00:29;;;;;;;31.03;12.47;;;;;;;10.67;91.65;101149.16;5060062;57;1143052;-77
2021/10/26 16:05:31;;;;;;;140.47;62.17;;;;;;;10.67;92.32;101157.57;5131504;57;1143361;-75
2021/10/26 16:10:44;;;;;;;59.97;31.47;;;;;;;10.68;91.87;101157.47;5041376;58;1145297;-74
2021/10/26 16:15:59;;;;;;;51.90;26.93;;;;;;;10.69;92.21;101164.45;5107903;56;1143194;-76
2021/10/26 16:21:06;;;;;;;34.50;16.47;;;;;;;10.69;91.75;101159.64;5041923;58;1143184;-74
2021/10/26 16:26:12;;;;;;;25.30;14.13;;;;;;;10.70;91.55;101163.95;5113754;57;1142995;-73
2021/10/26 16:31:19;;;;;;;23.87;14.07;;;;;;;10.71;91.30;101164.33;5068668;57;1143110;-74
2021/10/26 16:36:29;;;;;;;27.73;13.90;;;;;;;10.70;91.26;101171.89;5087907;57;1143166;-74
2021/10/26 16:41:33;;;;;;;25.27;11.20;;;;;;;10.70;91.05;101183.79;5018632;58;1143027;-75
2021/10/26 16:46:44;;;;;;;34.17;15.87;;;;;;;10.69;91.86;101192.23;4981315;59;1143486;-74
2021/10/26 16:51:50;;;;;;;22.70;13.03;;;;;;;10.69;91.22;101192.70;5057839;58;1142592;-73
2021/10/26 16:56:56;;;;;;;23.40;11.80;;;;;;;10.69;91.55;101195.36;5062533;58;1142710;-76
2021/10/26 17:02:09;;;;;;;24.53;12.33;;;;;;;10.70;91.38;101203.63;5070816;57;1143219;-76
2021/10/26 17:07:11;;;;;;;25.03;12.63;;;;;;;10.69;91.15;101201.49;5123922;57;1143130;-76
2021/10/26 17:12:17;;;;;;;98.40;58.23;;;;;;;10.67;91.40;101202.55;5073635;57;1143229;-75
2021/10/26 17:17:25;;;;;;;49.33;24.70;;;;;;;10.68;91.28;101206.41;5095387;57;1141172;-76
2021/10/26 17:22:30;;;;;;;91.87;39.30;;;;;;;10.68;91.43;101216.14;5130772;57;1141154;-75
2021/10/26 17:27:36;;;;;;;143.83;74.53;;;;;;;10.66;91.34;101214.07;5098213;57;1141119;-74
2021/10/26 17:32:42;;;;;;;55.43;26.07;;;;;;;10.64;91.31;101214.64;5099309;57;1142784;-76
2021/10/26 17:37:48;;;;;;;38.37;23.20;;;;;;;10.65;91.41;101222.48;5062359;58;1141347;-75
2021/10/26 17:42:54;;;;;;;40.77;20.47;;;;;;;10.62;91.76;101222.68;5096828;57;1141286;-75
2021/10/26 17:48:00;;;;;;;36.97;18.67;;;;;;;10.61;91.52;101230.72;5141473;57;1140594;-76
2021/10/26 17:53:05;;;;;;;30.13;16.10;;;;;;;10.61;91.68;101228.92;5141851;57;1141425;-74
2021/10/26 17:58:12;;;;;;;42.57;20.27;;;;;;;10.61;91.77;101232.03;5141627;57;1141110;-74
2021/10/26 18:03:20;;;;;;;44.73;23.23;;;;;;;10.61;91.49;101224.95;5141744;57;1140808;-76
2021/10/26 18:08:26;;;;;;;48.48;23.18;;;;;;;10.62;91.53;101225.80;5071676;57;1141274;-74
2021/10/26 18:13:33;;;;;;;32.00;16.60;;;;;;;10.60;91.62;101226.37;5083721;57;1140513;-75
2021/10/26 18:18:41;;;;;;;33.40;17.47;;;;;;;10.58;91.45;101232.61;5188531;56;1141237;-77
2021/10/26 18:23:47;;;;;;;39.03;15.37;;;;;;;10.57;91.42;101230.06;5188975;56;1141155;-75
2021/10/26 18:28:56;;;;;;;25.97;15.00;;;;;;;10.54;91.58;101242.20;5210635;56;1141256;-73
2021/10/26 18:34:02;;;;;;;30.73;15.13;;;;;;;10.53;92.11;101236.53;5062445;58;1141361;-74
2021/10/26 18:49:24;;;;;;;26.97;14.43;;;;;;;10.50;92.27;101233.61;5312449;55;1140171;-74
2021/10/26 18:54:30;;;;;;;25.33;13.07;;;;;;;10.50;92.31;101237.57;5151492;56;1143182;-74
2021/10/26 18:59:37;;;;;;;25.95;14.03;;;;;;;10.51;92.81;101237.95;5384638;55;1143090;-75
2021/10/26 19:04:42;;;;;;;30.20;16.43;;;;;;;10.54;92.79;101236.40;5236639;56;1143201;-76
2021/10/26 19:09:48;;;;;;;39.37;19.30;;;;;;;10.55;92.70;101230.63;5169545;55;1143240;-77
2021/10/26 19:14:54;;;;;;;58.63;33.20;;;;;;;10.55;92.67;101230.16;5273324;55;1143206;-76
2021/10/26 19:20:00;;;;;;;32.65;17.45;;;;;;;10.55;92.41;101240.73;5176474;56;1143459;-74
2021/10/26 19:25:08;;;;;;;24.97;14.37;;;;;;;10.53;92.44;101241.34;5235496;56;1142677;-75
2021/10/26 19:30:16;;;;;;;20.63;13.27;;;;;;;10.53;92.52;101232.56;5223983;55;1143106;-77
2021/10/26 19:35:26;;;;;;;23.30;14.23;;;;;;;10.49;92.73;101237.20;5204625;56;1142631;-76
2021/10/26 19:40:29;;;;;;;26.50;15.33;;;;;;;10.47;92.55;101243.53;5144458;55;1143210;-78
2021/10/26 19:45:35;;;;;;;19.57;11.20;;;;;;;10.44;92.47;101250.34;5114275;56;1143223;-75
2021/10/26 19:50:42;;;;;;;26.87;13.77;;;;;;;10.38;93.32;101248.11;5114087;56;1143087;-78
2021/10/26 19:55:48;;;;;;;21.97;12.83;;;;;;;10.35;93.12;101246.51;5126182;57;1143300;-76
2021/10/26 20:00:55;;;;;;;26.75;14.10;;;;;;;10.32;93.53;101256.42;5165544;57;1142806;-74
2021/10/26 20:06:00;;;;;;;31.00;15.00;;;;;;;10.27;93.29;101257.19;5167248;55;1143497;-74
2021/10/26 20:11:06;;;;;;;19.53;11.63;;;;;;;10.25;93.16;101262.57;5282875;55;1143314;-74
2021/10/26 20:16:12;;;;;;;24.50;10.37;;;;;;;10.23;93.50;101268.46;5141971;55;1143064;-77
2021/10/26 20:21:25;;;;;;;24.10;11.43;;;;;;;10.18;93.96;101273.15;5027685;57;1143245;-76
2021/10/26 20:31:40;;;;;;;;;;;;;;;10.11;94.42;101274.00;5148850;56;1143215;-76
2021/10/26 20:36:46;;;;;;;21.27;12.37;;;;;;;10.10;94.35;101274.94;5280895;56;976360;-77
2021/10/26 20:41:52;;;;;;;25.73;13.50;;;;;;;10.06;94.53;101271.30;5282533;55;1141138;-77
2021/10/26 20:46:58;;;;;;;25.20;13.47;;;;;;;10.02;94.41;101272.42;5311997;55;1143017;-75
2021/10/26 20:52:04;;;;;;;20.37;11.13;;;;;;;9.97;94.55;101271.38;5311128;55;1143167;-78
2021/10/26 20:57:10;;;;;;;30.23;15.63;;;;;;;9.94;94.18;101276.00;5311264;55;1141085;-77
2021/10/26 21:02:16;;;;;;;25.10;15.03;;;;;;;9.89;94.25;101271.03;5285675;55;1141311;-76
2021/10/26 21:07:21;;;;;;;23.63;14.27;;;;;;;9.84;94.47;101276.59;5287654;55;1141112;-78
2021/10/26 21:12:27;;;;;;;21.37;14.57;;;;;;;9.79;94.61;101281.30;5270036;55;1140988;-75
2021/10/26 21:17:33;;;;;;;27.57;16.70;;;;;;;9.76;94.37;101287.28;5269369;55;1141069;-76
2021/10/26 21:22:41;;;;;;;24.93;12.80;;;;;;;9.70;94.58;101287.17;5311474;55;1141143;-75
2021/10/26 21:27:46;;;;;;;23.67;14.57;;;;;;;9.66;94.82;101283.48;5312590;55;1141214;-77
2021/10/26 21:32:54;;;;;;;40.00;17.60;;;;;;;9.59;94.62;101275.58;5312560;55;1141112;-76
2021/10/26 21:38:11;;;;;;;34.23;16.60;;;;;;;9.53;94.76;101287.35;5312576;55;1141339;-75
2021/10/26 21:43:18;;;;;;;32.70;15.63;;;;;;;9.46;94.75;101281.61;5312690;55;1139170;-77
2021/10/26 21:48:23;;;;;;;42.37;20.67;;;;;;;9.41;95.10;101288.10;5312638;55;1139173;-77
2021/10/26 21:53:29;;;;;;;31.57;17.07;;;;;;;9.37;95.34;101291.39;5312491;55;1139104;-75
2021/10/26 21:58:34;;;;;;;32.33;17.10;;;;;;;9.33;95.17;101286.38;5312655;55;1139294;-78
2021/10/26 22:03:40;;;;;;;20.53;11.13;;;;;;;9.28;95.33;101291.11;5136562;56;1139181;-75
2021/10/26 22:08:46;;;;;;;21.97;13.13;;;;;;;9.24;96.54;101293.07;5140813;56;1139124;-77
2021/10/26 22:13:52;;;;;;;23.13;13.27;;;;;;;9.17;97.01;101289.94;5140813;56;1139031;-75
2021/10/26 22:18:57;;;;;;;28.53;16.40;;;;;;;9.12;97.63;101297.30;5140843;57;1139056;-77
2021/10/26 22:24:03;;;;;;;35.57;15.67;;;;;;;9.08;97.76;101290.49;5140927;57;1139051;-77
2021/10/26 22:29:10;;;;;;;24.33;14.27;;;;;;;9.06;98.83;101285.77;5140896;57;1139001;-77
2021/10/26 22:34:15;;;;;;;20.87;13.10;;;;;;;9.06;98.72;101291.52;5312397;55;1139115;-75
2021/10/26 22:39:21;;;;;;;18.83;12.40;;;;;;;9.04;98.44;101287.64;5136332;56;1139170;-76
2021/10/26 22:44:27;;;;;;;34.10;15.80;;;;;;;9.02;98.95;101281.60;5134067;55;1139017;-78
2021/10/26 22:49:34;;;;;;;26.90;15.80;;;;;;;9.01;99.14;101291.78;5186922;57;1139276;-77
2021/10/26 22:54:40;;;;;;;31.50;17.40;;;;;;;9.02;99.27;101288.67;5179127;56;1139020;-75
2021/10/26 22:59:47;;;;;;;19.93;11.97;;;;;;;9.00;99.34;101291.43;5124441;57;1138908;-75
2021/10/26 23:04:53;;;;;;;19.57;12.30;;;;;;;9.02;100.00;101292.62;5311253;55;1139040;-77
2021/10/26 23:09:59;;;;;;;27.60;16.73;;;;;;;9.04;100.00;101293.39;5310988;55;1141306;-77
2021/10/26 23:15:07;;;;;;;31.07;15.70;;;;;;;9.05;100.00;101301.69;5232741;55;1139027;-77
2021/10/26 23:20:14;;;;;;;22.70;12.85;;;;;;;9.06;99.77;101305.56;5206333;57;1143238;-76
2021/10/26 23:25:20;;;;;;;24.17;14.13;;;;;;;9.05;99.91;101299.91;4976296;58;1141145;-77
2021/10/26 23:30:26;;;;;;;19.00;13.03;;;;;;;9.10;100.00;101302.28;5087892;58;1141111;-78
2021/10/26 23:35:33;;;;;;;23.63;13.57;;;;;;;9.12;100.00;101304.36;5046716;57;1143222;-75
2021/10/26 23:40:41;;;;;;;19.83;12.43;;;;;;;9.11;100.00;101307.47;5143295;57;1143547;-76